Time;durP1;ratioP1;P1;durP2;ratioP2;P2;SDS_P1;SDS_P2;PMS_P1;PMS_P2;Temp;Humidity;BMP_temperature;BMP_pressure;BME280_temperature;BME280_humidity;BME280_pressure;Samples;Min_cycle;Max_cycle;Signal;HPM_P1;HPM_P2
2023/07/29 00:00:55;;;;;;;5.78;1.85;;;;;;;17.62;91.32;100798.44;6077905;19;20014;-71
2023/07/29 00:03:01;;;;;;;5.45;2.25;;;;;;;17.58;90.83;100791.63;6062290;19;20265;-71
2023/07/29 00:05:04;;;;;;;3.35;1.92;;;;;;;17.53;91.74;100795.44;6067934;19;20011;-71
2023/07/29 00:07:09;;;;;;;6.18;2.08;;;;;;;17.48;92.07;100783.44;6074849;19;20093;-70
2023/07/29 00:09:15;;;;;;;5.63;2.10;;;;;;;17.46;91.76;100782.72;6071820;19;20278;-70
2023/07/29 00:11:22;;;;;;;6.72;1.80;;;;;;;17.41;91.87;100777.72;6067619;19;20062;-73
2023/07/29 00:13:29;;;;;;;3.90;1.90;;;;;;;17.36;91.87;100787.81;6073819;19;20021;-72
2023/07/29 00:15:34;;;;;;;3.10;1.75;;;;;;;17.31;92.35;100785.47;6077588;19;20078;-72
2023/07/29 00:17:40;;;;;;;3.47;1.90;;;;;;;17.21;92.88;100772.94;6068649;19;20031;-71
2023/07/29 00:19:45;;;;;;;3.85;2.40;;;;;;;17.22;93.23;100774.63;6071813;19;20100;-71
2023/07/29 00:21:50;;;;;;;5.22;2.30;;;;;;;17.16;93.26;100772.41;6087564;19;20578;-71
2023/07/29 00:23:57;;;;;;;5.47;2.70;;;;;;;17.11;93.31;100765.63;6063973;19;20216;-71
2023/07/29 00:26:02;;;;;;;6.18;2.30;;;;;;;17.14;93.57;100766.34;6068237;19;20212;-71
2023/07/29 00:28:14;;;;;;;6.40;2.50;;;;;;;17.11;93.50;100772.72;6061388;19;20010;-71
2023/07/29 00:30:19;;;;;;;6.78;2.58;;;;;;;17.11;93.32;100768.28;6072405;19;20015;-71
2023/07/29 00:32:24;;;;;;;4.72;2.30;;;;;;;17.08;93.39;100765.81;6080213;19;20523;-71
2023/07/29 00:34:30;;;;;;;8.25;2.13;;;;;;;17.05;93.13;100767.84;6076804;19;20010;-71
2023/07/29 00:36:36;;;;;;;5.07;2.03;;;;;;;17.04;93.27;100772.31;6080547;19;20011;-71
2023/07/29 00:38:42;;;;;;;5.07;2.03;;;;;;;16.96;93.23;100758.72;6070087;19;20015;-73
2023/07/29 00:40:47;;;;;;;4.07;2.03;;;;;;;16.94;93.85;100765.09;6070124;19;20074;-72
2023/07/29 00:42:50;;;;;;;6.13;2.20;;;;;;;16.89;94.10;100763.59;6068863;19;20015;-71
2023/07/29 00:44:58;;;;;;;4.13;1.90;;;;;;;16.83;94.32;100760.53;6070001;19;20010;-71
2023/07/29 00:47:07;;;;;;;4.93;2.20;;;;;;;16.83;94.37;100769.31;6070747;19;20043;-71
2023/07/29 00:49:15;;;;;;;4.32;2.17;;;;;;;16.79;94.39;100777.59;6085025;19;20085;-71
2023/07/29 00:51:22;;;;;;;5.82;2.35;;;;;;;16.77;95.66;100771.50;6074439;19;20007;-72
2023/07/29 00:53:27;;;;;;;3.53;1.95;;;;;;;16.78;95.75;100766.13;6073089;19;20542;-72
2023/07/29 00:55:33;;;;;;;6.25;2.40;;;;;;;16.81;95.94;100767.72;6069614;19;20040;-72
2023/07/29 00:57:39;;;;;;;5.45;2.53;;;;;;;16.81;96.08;100762.41;6066591;19;20013;-72
2023/07/29 00:59:45;;;;;;;6.90;2.70;;;;;;;16.82;96.44;100767.59;6069647;19;20011;-73
2023/07/29 01:01:53;;;;;;;6.75;2.40;;;;;;;16.80;96.22;100763.38;6067626;19;20039;-71
2023/07/29 01:03:58;;;;;;;4.45;2.50;;;;;;;16.86;95.64;100763.81;6066517;19;20281;-70
2023/07/29 01:06:16;;;;;;;5.05;2.83;;;;;;;16.92;94.80;100757.22;6071360;19;20014;-70
2023/07/29 01:08:31;;;;;;;6.93;2.13;;;;;;;16.96;94.03;100763.19;6064945;19;20292;-71
2023/07/29 01:10:48;;;;;;;6.88;1.98;;;;;;;16.94;94.47;100755.31;6071070;19;20043;-71
2023/07/29 01:13:00;;;;;;;7.78;2.20;;;;;;;17.00;93.58;100754.88;6070646;19;20047;-70
2023/07/29 01:15:15;;;;;;;3.50;2.08;;;;;;;17.02;93.39;100752.97;6058389;19;20598;-70
2023/07/29 01:17:35;;;;;;;4.65;2.25;;;;;;;17.04;92.82;100750.25;6068369;19;20504;-70
2023/07/29 01:19:57;;;;;;;5.35;2.67;;;;;;;17.05;92.81;100744.81;6067558;19;20006;-70
2023/07/29 01:22:05;;;;;;;3.83;2.05;;;;;;;17.04;92.62;100745.78;6074228;19;20301;-71
2023/07/29 01:24:13;;;;;;;5.63;1.95;;;;;;;17.01;92.61;100746.00;6062536;19;20039;-71
2023/07/29 01:26:16;;;;;;;6.22;2.35;;;;;;;16.98;92.14;100745.34;6068281;19;20321;-73
2023/07/29 01:28:21;;;;;;;3.92;2.00;;;;;;;17.03;92.01;100741.41;6066895;19;20340;-72
2023/07/29 01:30:40;;;;;;;8.70;2.45;;;;;;;17.01;92.16;100743.34;6074542;19;20060;-71
2023/07/29 01:32:56;;;;;;;5.15;2.00;;;;;;;16.99;91.94;100742.59;6050726;19;20643;-71
2023/07/29 01:35:17;;;;;;;5.28;2.20;;;;;;;16.96;92.12;100747.25;6061972;19;20789;-71
2023/07/29 01:37:29;;;;;;;4.30;2.10;;;;;;;16.93;92.11;100745.66;6060806;19;20769;-71
2023/07/29 01:39:39;;;;;;;5.72;2.22;;;;;;;16.85;92.04;100742.66;6063851;19;20031;-71
2023/07/29 01:41:46;;;;;;;7.68;2.17;;;;;;;16.84;92.20;100738.31;6057784;19;20011;-71
2023/07/29 01:43:55;;;;;;;5.28;2.13;;;;;;;16.82;92.27;100741.06;6067782;19;20359;-71
2023/07/29 01:46:02;;;;;;;5.53;2.15;;;;;;;16.77;92.63;100740.56;6065110;19;20405;-70
2023/07/29 01:48:08;;;;;;;6.07;2.22;;;;;;;16.74;92.68;100732.75;6056233;19;20407;-71
2023/07/29 01:50:14;;;;;;;10.65;3.45;;;;;;;16.76;92.90;100737.97;6057919;19;20003;-72
2023/07/29 01:52:19;;;;;;;4.28;2.25;;;;;;;16.72;92.86;100734.69;6054895;19;20578;-70
2023/07/29 01:54:25;;;;;;;6.38;2.33;;;;;;;16.72;93.11;100733.81;6071239;19;20014;-71
2023/07/29 01:56:33;;;;;;;4.50;2.30;;;;;;;16.69;93.11;100724.25;6063104;19;20494;-71
2023/07/29 01:58:36;;;;;;;5.25;2.38;;;;;;;16.62;93.03;100723.84;6058223;19;20376;-70
2023/07/29 02:00:41;;;;;;;;;;;;;;;16.65;93.51;100723.63;6062777;19;20011;-70
2023/07/29 02:02:46;;;;;;;5.35;2.65;;;;;;;16.65;93.47;100728.09;6066548;19;19914;-71
2023/07/29 02:04:52;;;;;;;7.50;2.53;;;;;;;16.62;93.57;100723.84;6067076;19;20409;-72
2023/07/29 02:06:58;;;;;;;5.53;2.78;;;;;;;16.65;93.40;100728.94;6059313;19;20006;-71
2023/07/29 02:09:04;;;;;;;5.40;2.47;;;;;;;16.61;93.37;100732.75;6053125;19;20018;-71
2023/07/29 02:11:10;;;;;;;5.20;2.53;;;;;;;16.70;93.56;100725.13;6063200;19;20010;-71
2023/07/29 02:13:17;;;;;;;5.30;2.28;;;;;;;16.62;93.48;100717.69;6068440;19;20348;-72
2023/07/29 02:15:23;;;;;;;6.00;2.25;;;;;;;16.63;93.38;100717.56;6061108;19;20031;-73
2023/07/29 02:17:28;;;;;;;8.00;2.60;;;;;;;16.67;93.53;100713.75;6066798;19;20525;-73
2023/07/29 02:19:33;;;;;;;5.90;2.40;;;;;;;16.68;93.50;100715.44;6044368;19;20376;-72
2023/07/29 02:21:38;;;;;;;3.45;2.00;;;;;;;16.67;93.71;100713.75;6052813;19;20282;-71
2023/07/29 02:23:43;;;;;;;4.50;1.92;;;;;;;16.67;93.51;100707.59;6058899;19;20704;-71
2023/07/29 02:25:49;;;;;;;7.35;2.60;;;;;;;16.61;93.54;100706.22;6073583;19;20036;-71
2023/07/29 02:27:54;;;;;;;4.93;2.28;;;;;;;16.59;93.70;100705.47;6065858;19;20054;-71
2023/07/29 02:30:02;;;;;;;6.40;2.63;;;;;;;16.60;93.87;100709.81;6068666;19;20006;-71
2023/07/29 02:32:05;;;;;;;4.90;2.58;;;;;;;16.56;94.07;100703.03;6070730;19;20478;-71
2023/07/29 02:34:10;;;;;;;7.15;2.13;;;;;;;16.54;94.42;100704.94;6069399;19;20165;-71
2023/07/29 02:36:16;;;;;;;4.50;2.00;;;;;;;16.55;94.41;100698.66;6066625;19;20014;-72
2023/07/29 02:38:22;;;;;;;8.98;2.78;;;;;;;16.54;94.38;100696.97;6062028;19;20015;-72
2023/07/29 02:40:29;;;;;;;3.97;1.98;;;;;;;16.53;94.30;100682.00;6064094;19;20011;-72
2023/07/29 02:42:34;;;;;;;5.15;2.17;;;;;;;16.54;94.64;100681.06;6053420;19;20006;-72
2023/07/29 02:44:39;;;;;;;6.97;2.67;;;;;;;16.53;94.29;100678.50;6044756;19;20003;-71
2023/07/29 02:46:47;;;;;;;7.72;2.50;;;;;;;16.53;94.61;100682.00;6065046;19;20022;-71
2023/07/29 02:48:53;;;;;;;5.65;2.50;;;;;;;16.55;94.48;100685.41;6065246;19;20011;-71
2023/07/29 02:50:56;;;;;;;6.22;2.35;;;;;;;16.58;94.28;100685.19;6064224;19;20010;-73
2023/07/29 02:53:02;;;;;;;5.22;2.60;;;;;;;16.54;94.60;100686.38;6061269;19;20014;-71
2023/07/29 02:55:08;;;;;;;4.35;2.00;;;;;;;16.51;94.83;100685.69;6066991;19;20365;-71
2023/07/29 02:57:17;;;;;;;6.75;2.45;;;;;;;16.51;95.08;100691.88;6062680;19;20257;-72
2023/07/29 02:59:22;;;;;;;8.20;2.88;;;;;;;16.56;94.65;100695.06;6054432;19;20834;-70
2023/07/29 03:01:28;;;;;;;5.80;2.58;;;;;;;16.54;94.73;100689.03;6071278;19;20427;-70
2023/07/29 03:03:36;;;;;;;6.57;2.75;;;;;;;16.52;94.97;100685.63;6060490;19;20038;-71
2023/07/29 03:05:44;;;;;;;8.57;3.40;;;;;;;16.51;95.17;100683.94;6058939;19;20007;-70
2023/07/29 03:07:49;;;;;;;7.28;2.83;;;;;;;16.49;95.27;100698.25;6062393;19;20015;-70
2023/07/29 03:09:54;;;;;;;6.78;2.97;;;;;;;16.50;95.53;100698.13;6033584;19;20573;-71
2023/07/29 03:11:59;;;;;;;7.88;3.60;;;;;;;16.53;95.32;100697.06;6064603;19;20528;-71
2023/07/29 03:14:05;;;;;;;4.57;2.60;;;;;;;16.50;95.46;100703.44;6058699;19;20010;-71
2023/07/29 03:16:13;;;;;;;6.88;2.95;;;;;;;16.50;95.23;100705.25;6049896;19;20288;-71
2023/07/29 03:18:18;;;;;;;7.05;2.38;;;;;;;16.49;95.68;100707.03;6056496;19;20010;-71
2023/07/29 03:20:29;;;;;;;10.15;2.97;;;;;;;16.53;95.56;100705.88;6054717;19;20511;-71
2023/07/29 03:22:34;;;;;;;6.80;2.47;;;;;;;16.58;95.61;100701.09;6072543;19;20074;-71
2023/07/29 03:24:40;;;;;;;7.20;2.90;;;;;;;16.59;95.33;100699.31;6062829;19;20214;-70
2023/07/29 03:26:47;;;;;;;7.65;2.38;;;;;;;16.61;95.36;100695.63;6064437;19;20002;-70
2023/07/29 03:28:55;;;;;;;6.63;2.75;;;;;;;16.59;95.19;100686.91;6065499;19;20011;-71
2023/07/29 03:31:02;;;;;;;8.20;2.50;;;;;;;16.61;95.58;100697.38;6065427;19;20013;-71
2023/07/29 03:33:07;;;;;;;6.95;2.65;;;;;;;16.58;95.62;100706.41;6059757;19;20360;-71
2023/07/29 03:35:13;;;;;;;5.43;2.47;;;;;;;16.65;95.33;100710.34;6073019;19;20051;-72
2023/07/29 03:37:21;;;;;;;6.68;2.75;;;;;;;16.66;95.30;100705.88;6035287;19;21259;-72
2023/07/29 03:39:27;;;;;;;7.25;2.35;;;;;;;16.63;95.43;100706.94;6056388;19;20040;-71
2023/07/29 03:41:33;;;;;;;7.32;3.17;;;;;;;16.62;95.26;100707.91;6060595;19;20503;-71
2023/07/29 03:43:38;;;;;;;7.28;2.72;;;;;;;16.61;95.58;100708.88;6057320;19;20501;-72
2023/07/29 03:45:41;;;;;;;8.77;3.00;;;;;;;16.65;95.20;100713.00;6065798;19;20057;-71
2023/07/29 03:47:46;;;;;;;;;;;;;;;16.75;95.17;100713.25;6063801;19;20367;-70
2023/07/29 03:49:49;;;;;;;11.77;3.33;;;;;;;16.75;95.11;100701.78;6060665;19;20324;-70
2023/07/29 03:51:54;;;;;;;8.95;3.10;;;;;;;16.76;94.91;100698.16;6062512;19;20003;-71
2023/07/29 03:54:03;;;;;;;9.93;3.58;;;;;;;16.73;95.18;100704.53;6056895;19;20666;-70
2023/07/29 03:56:08;;;;;;;6.43;3.00;;;;;;;16.74;95.30;100703.56;6063023;19;20809;-71
2023/07/29 03:58:15;;;;;;;8.18;3.03;;;;;;;16.75;95.18;100709.75;6075222;19;20742;-70
2023/07/29 04:00:18;;;;;;;6.13;2.92;;;;;;;16.73;95.39;100703.69;6072131;19;20030;-70
2023/07/29 04:02:24;;;;;;;8.63;3.42;;;;;;;16.72;95.32;100701.97;6072030;19;20025;-71
2023/07/29 04:04:29;;;;;;;11.05;3.20;;;;;;;16.77;94.97;100707.81;6065731;19;20345;-71
2023/07/29 04:06:34;;;;;;;9.15;3.20;;;;;;;16.81;95.05;100698.72;6077515;19;20181;-72
2023/07/29 04:08:41;;;;;;;8.27;3.88;;;;;;;16.78;95.07;100706.91;6071820;19;20428;-70
2023/07/29 04:10:49;;;;;;;9.23;3.42;;;;;;;16.80;95.25;100695.22;6064012;19;20312;-70
2023/07/29 04:12:55;;;;;;;8.23;3.28;;;;;;;16.78;95.16;100694.47;6071143;19;20027;-72
2023/07/29 04:15:02;;;;;;;7.40;3.25;;;;;;;16.79;95.14;100697.97;6050742;19;20588;-72
2023/07/29 04:17:05;;;;;;;7.97;3.53;;;;;;;16.77;95.42;100705.16;6061155;19;20082;-71
2023/07/29 04:19:14;;;;;;;7.47;3.10;;;;;;;16.78;95.49;100704.25;6063036;19;20364;-70
2023/07/29 04:21:19;;;;;;;9.70;3.63;;;;;;;16.79;95.38;100704.13;6067601;19;21460;-70
2023/07/29 04:23:24;;;;;;;9.55;3.75;;;;;;;16.82;95.45;100708.38;6064877;19;20824;-71
2023/07/29 04:25:30;;;;;;;8.90;3.47;;;;;;;16.85;95.46;100702.84;6063387;19;20010;-72
2023/07/29 04:27:38;;;;;;;13.45;3.80;;;;;;;16.82;95.21;100703.06;6066328;19;20404;-71
2023/07/29 04:29:43;;;;;;;7.03;3.30;;;;;;;16.83;95.59;100710.94;6066118;19;20039;-71
2023/07/29 04:31:48;;;;;;;14.60;4.90;;;;;;;16.83;95.60;100710.09;6057518;19;20043;-71
2023/07/29 04:33:53;;;;;;;10.80;3.60;;;;;;;16.82;95.54;100708.38;6060289;19;20427;-70
2023/07/29 04:35:59;;;;;;;9.52;4.05;;;;;;;16.85;95.46;100713.47;6072538;19;20020;-71
2023/07/29 04:38:04;;;;;;;8.68;4.00;;;;;;;16.89;95.57;100709.66;6063336;19;20374;-71
2023/07/29 04:40:11;;;;;;;9.75;4.03;;;;;;;16.88;95.73;100705.31;6065343;19;20490;-70
2023/07/29 04:42:16;;;;;;;8.32;4.25;;;;;;;16.85;95.68;100709.03;6073641;19;20062;-71
2023/07/29 04:44:24;;;;;;;9.95;5.20;;;;;;;16.87;95.93;100717.72;6071215;19;20015;-71
2023/07/29 04:46:29;;;;;;;8.80;4.28;;;;;;;16.86;95.92;100720.50;6066910;19;20534;-71
2023/07/29 04:48:35;;;;;;;8.95;3.92;;;;;;;16.84;96.50;100722.41;6074247;19;20014;-71
2023/07/29 04:50:41;;;;;;;9.93;3.92;;;;;;;16.86;96.03;100721.34;6074983;19;20010;-71
2023/07/29 04:52:46;;;;;;;10.25;4.32;;;;;;;16.87;96.66;100722.19;6063255;19;20349;-71
2023/07/29 04:54:52;;;;;;;11.55;4.18;;;;;;;16.86;96.60;100726.66;6069431;19;20472;-70
2023/07/29 04:56:58;;;;;;;10.70;4.03;;;;;;;16.88;96.65;100715.94;6071252;19;20014;-70
2023/07/29 04:59:03;;;;;;;9.40;4.00;;;;;;;16.93;96.57;100716.47;6063860;19;20507;-72
2023/07/29 05:01:29;;;;;;;9.50;3.80;;;;;;;16.92;96.30;100712.09;6074173;19;20527;-71
2023/07/29 05:03:40;;;;;;;8.38;3.90;;;;;;;16.94;96.28;100707.53;6046450;19;20018;-71
2023/07/29 05:05:45;;;;;;;10.48;4.38;;;;;;;16.92;96.30;100704.13;6076960;19;20074;-70
2023/07/29 05:07:50;;;;;;;9.70;3.97;;;;;;;16.95;96.52;100714.53;6073117;19;20482;-71
2023/07/29 05:09:55;;;;;;;8.75;3.70;;;;;;;16.98;96.40;100719.66;6066859;19;20014;-70
2023/07/29 05:12:03;;;;;;;10.50;4.35;;;;;;;17.05;96.29;100720.91;6053124;19;20400;-70
2023/07/29 05:14:10;;;;;;;9.90;3.65;;;;;;;17.05;96.50;100707.63;6073916;19;20463;-70
2023/07/29 05:16:47;;;;;;;9.43;3.88;;;;;;;17.02;96.53;100702.53;6072362;19;20002;-70
2023/07/29 05:19:12;;;;;;;10.40;3.75;;;;;;;17.08;96.51;100701.25;6059896;19;20147;-70
2023/07/29 05:21:21;;;;;;;12.00;4.70;;;;;;;17.08;96.52;100698.59;6074427;19;20089;-71
2023/07/29 05:23:26;;;;;;;10.60;4.57;;;;;;;17.16;96.35;100693.59;6053721;19;20023;-70
2023/07/29 05:25:34;;;;;;;13.98;4.65;;;;;;;17.18;96.15;100696.16;6069463;19;20249;-72
2023/07/29 05:27:40;;;;;;;9.63;4.60;;;;;;;17.16;96.41;100692.75;6050804;19;20014;-71
2023/07/29 05:29:45;;;;;;;10.88;4.85;;;;;;;17.22;96.15;100690.53;6068175;19;20205;-70
2023/07/29 05:31:53;;;;;;;10.30;4.32;;;;;;;17.31;95.99;100694.34;6050842;19;20034;-72
2023/07/29 05:33:59;;;;;;;12.55;5.10;;;;;;;17.36;95.88;100696.69;6071502;19;25160;-70
2023/07/29 05:36:02;;;;;;;9.00;4.95;;;;;;;17.40;95.67;100695.47;6078586;19;20015;-72
2023/07/29 05:38:08;;;;;;;10.13;4.07;;;;;;;17.41;95.35;100692.72;6066768;19;20752;-72
2023/07/29 05:40:15;;;;;;;10.15;4.53;;;;;;;17.44;95.16;100696.97;6075958;19;20018;-72
2023/07/29 05:42:20;;;;;;;11.07;4.13;;;;;;;17.54;95.29;100700.66;6066010;19;20555;-72
2023/07/29 05:44:30;;;;;;;8.07;3.67;;;;;;;17.51;95.21;100698.25;6066302;19;20402;-71
2023/07/29 05:46:38;;;;;;;9.23;3.83;;;;;;;17.55;95.30;100697.03;6072801;19;20019;-70
2023/07/29 05:48:53;;;;;;;6.60;3.30;;;;;;;17.59;95.24;100698.53;6064469;19;20010;-71
2023/07/29 05:51:05;;;;;;;8.35;4.03;;;;;;;17.61;95.48;100701.06;6063078;19;20021;-72
2023/07/29 05:53:12;;;;;;;12.15;4.07;;;;;;;17.63;95.80;100707.13;6050375;19;20016;-72
2023/07/29 05:55:21;;;;;;;9.55;4.25;;;;;;;17.61;95.78;100701.06;6070829;19;20323;-70
2023/07/29 05:57:27;;;;;;;11.63;4.15;;;;;;;17.65;95.69;100715.84;6059705;19;20433;-72
2023/07/29 06:02:39;;;;;;;11.57;3.72;;;;;;;17.73;95.23;100718.78;6066978;19;20072;-70
2023/07/29 06:04:46;;;;;;;7.78;3.40;;;;;;;17.81;95.38;100704.97;6062141;19;20333;-72
2023/07/29 06:06:51;;;;;;;7.40;4.32;;;;;;;17.84;95.13;100708.25;6073795;19;20010;-72
2023/07/29 06:08:59;;;;;;;7.22;3.30;;;;;;;17.77;95.01;100715.81;6072963;19;20067;-72
2023/07/29 06:11:06;;;;;;;10.10;4.10;;;;;;;17.86;94.93;100711.66;6073140;19;20010;-70
2023/07/29 06:13:15;;;;;;;10.60;3.42;;;;;;;17.89;94.83;100706.09;6073477;19;20006;-72
2023/07/29 06:15:21;;;;;;;7.60;3.80;;;;;;;17.94;94.69;100708.44;6044344;19;20007;-70
2023/07/29 06:17:30;;;;;;;11.05;3.95;;;;;;;17.91;95.06;100706.84;6071680;19;20038;-73
2023/07/29 06:19:37;;;;;;;10.65;3.85;;;;;;;17.97;94.58;100714.34;6080688;19;20537;-73
2023/07/29 06:21:52;;;;;;;10.52;4.07;;;;;;;18.03;94.10;100707.75;6071428;19;20458;-71
2023/07/29 06:24:00;;;;;;;9.63;3.50;;;;;;;18.05;94.26;100711.13;6079761;19;20010;-72
2023/07/29 06:26:10;;;;;;;13.30;4.15;;;;;;;18.12;94.15;100719.53;6082719;19;20006;-72
2023/07/29 06:28:18;;;;;;;9.32;3.75;;;;;;;18.22;93.69;100717.88;6079104;19;20381;-73
2023/07/29 06:30:24;;;;;;;7.53;3.10;;;;;;;18.27;92.93;100715.69;6075996;19;20027;-72
2023/07/29 06:32:30;;;;;;;8.23;3.55;;;;;;;18.36;92.90;100714.19;6077276;19;20010;-73
2023/07/29 06:34:40;;;;;;;;;;;;;;;18.37;92.15;100716.72;6063155;19;20303;-72
2023/07/29 06:36:51;;;;;;;8.57;3.35;;;;;;;18.67;91.70;100717.16;6062351;19;20190;-73
2023/07/29 06:38:56;;;;;;;6.85;3.47;;;;;;;19.12;89.39;100726.13;6054100;19;20239;-72
2023/07/29 06:41:11;;;;;;;6.43;3.20;;;;;;;19.13;89.39;100713.66;6047715;19;20304;-73
2023/07/29 06:43:21;;;;;;;8.98;2.97;;;;;;;19.34;88.04;100719.09;6068798;19;20084;-71
2023/07/29 06:45:43;;;;;;;7.38;2.63;;;;;;;19.98;85.87;100711.25;6076624;19;20015;-70
2023/07/29 06:47:48;;;;;;;5.70;2.50;;;;;;;19.83;85.04;100724.03;6055518;19;20257;-72
2023/07/29 06:50:18;;;;;;;7.85;2.55;;;;;;;20.13;84.52;100718.00;6079474;19;20011;-71
2023/07/29 06:52:36;;;;;;;5.35;2.78;;;;;;;20.36;82.52;100709.91;6056813;19;20015;-70
2023/07/29 06:54:52;;;;;;;5.78;2.50;;;;;;;19.57;85.49;100714.59;6079629;19;20498;-73
2023/07/29 06:57:03;;;;;;;9.18;2.50;;;;;;;19.30;87.29;100732.66;6078326;19;20470;-73
2023/07/29 06:59:15;;;;;;;5.63;2.83;;;;;;;19.25;87.84;100732.19;6073808;19;20017;-72
2023/07/29 07:01:23;;;;;;;8.38;3.03;;;;;;;19.20;87.33;100722.84;6079770;19;20418;-73
2023/07/29 07:03:34;;;;;;;6.18;2.95;;;;;;;19.20;86.69;100715.72;6083882;19;20010;-71
2023/07/29 07:05:45;;;;;;;6.82;3.47;;;;;;;19.59;84.54;100718.84;6063383;19;20490;-72
2023/07/29 07:07:54;;;;;;;6.15;3.03;;;;;;;19.40;85.31;100726.59;6052745;19;20442;-72
2023/07/29 07:10:02;;;;;;;10.13;3.67;;;;;;;19.35;85.10;100712.78;6087330;19;20409;-73
2023/07/29 07:12:11;;;;;;;8.88;2.97;;;;;;;19.38;85.01;100717.88;6052074;19;20018;-73
2023/07/29 07:14:17;;;;;;;7.85;2.70;;;;;;;19.32;84.35;100727.19;6080218;19;20018;-74
2023/07/29 07:16:24;;;;;;;4.55;2.55;;;;;;;19.20;84.58;100721.03;6087604;19;20480;-73
2023/07/29 07:18:33;;;;;;;5.43;2.70;;;;;;;19.47;85.17;100722.47;6078815;19;20029;-74
2023/07/29 07:20:40;;;;;;;4.43;2.38;;;;;;;20.47;80.77;100715.19;6065738;19;20015;-72
2023/07/29 07:22:46;;;;;;;8.88;2.42;;;;;;;20.99;77.66;100720.63;6086968;19;20341;-72
2023/07/29 07:24:54;;;;;;;4.57;2.28;;;;;;;21.33;76.06;100720.34;6078850;19;20011;-72
2023/07/29 07:27:08;;;;;;;4.32;2.03;;;;;;;21.34;74.74;100722.88;6086557;19;20187;-73
2023/07/29 07:29:16;;;;;;;4.38;2.22;;;;;;;21.65;74.10;100720.22;6075368;19;20495;-73
2023/07/29 07:31:21;;;;;;;3.97;2.13;;;;;;;21.56;73.02;100723.69;6053064;19;20273;-72
2023/07/29 07:33:26;;;;;;;8.85;3.17;;;;;;;21.75;72.52;100737.13;6085603;19;20264;-73
2023/07/29 07:35:32;;;;;;;5.00;1.95;;;;;;;21.63;71.11;100724.84;6086372;19;20297;-71
2023/07/29 07:38:07;;;;;;;4.93;2.10;;;;;;;21.03;73.02;100738.91;6088802;19;20011;-72
2023/07/29 07:40:17;;;;;;;5.88;2.05;;;;;;;20.97;73.54;100731.44;6088721;19;20281;-70
2023/07/29 07:42:23;;;;;;;6.35;2.20;;;;;;;20.95;73.49;100733.38;6079694;19;20003;-71
2023/07/29 07:44:28;;;;;;;5.60;1.60;;;;;;;20.52;74.30;100734.34;6090182;19;20522;-70
2023/07/29 07:46:35;;;;;;;4.15;2.40;;;;;;;20.41;75.02;100745.06;6087557;19;20022;-71
2023/07/29 07:48:41;;;;;;;5.18;1.85;;;;;;;19.94;75.97;100737.34;6082947;19;20146;-71
2023/07/29 07:50:46;;;;;;;3.75;1.95;;;;;;;20.93;72.27;100732.69;6086908;19;20038;-70
2023/07/29 07:52:52;;;;;;;4.10;2.15;;;;;;;21.61;70.38;100737.50;6082233;19;20015;-72
2023/07/29 07:54:58;;;;;;;3.30;2.00;;;;;;;21.89;69.55;100744.75;6089259;19;20302;-72
2023/07/29 07:57:06;;;;;;;5.07;2.10;;;;;;;21.89;68.45;100731.38;6074132;19;20467;-71
2023/07/29 07:59:12;;;;;;;6.95;2.40;;;;;;;22.48;67.44;100734.97;6080122;19;20409;-71
2023/07/29 08:01:21;;;;;;;7.13;2.97;;;;;;;22.56;66.78;100736.94;6079660;19;21182;-72
2023/07/29 08:03:29;;;;;;;4.43;1.83;;;;;;;21.98;68.28;100736.88;6070646;19;20093;-72
2023/07/29 08:05:34;;;;;;;6.57;2.00;;;;;;;22.58;65.88;100735.81;6077917;19;20078;-71
2023/07/29 08:07:39;;;;;;;5.07;1.98;;;;;;;22.60;66.90;100748.22;6075068;19;20215;-71
2023/07/29 08:09:45;;;;;;;4.15;1.90;;;;;;;22.27;67.52;100737.78;6077160;19;20046;-70
2023/07/29 08:11:50;;;;;;;4.55;1.90;;;;;;;22.84;66.54;100745.09;6072077;19;20032;-72
2023/07/29 08:13:58;;;;;;;3.88;2.00;;;;;;;22.86;64.80;100745.78;6074030;19;20066;-72
2023/07/29 08:16:04;;;;;;;5.70;1.80;;;;;;;23.17;64.27;100746.41;6069550;19;20016;-71
2023/07/29 08:18:10;;;;;;;2.67;1.73;;;;;;;23.02;63.09;100748.75;6070658;19;20578;-72
2023/07/29 08:20:15;;;;;;;3.97;1.90;;;;;;;22.97;62.19;100751.00;6069193;19;20108;-73
2023/07/29 08:22:21;;;;;;;5.03;2.25;;;;;;;23.05;62.83;100742.25;6081939;19;20216;-74
2023/07/29 08:24:29;;;;;;;3.78;2.15;;;;;;;22.50;63.65;100749.06;6086186;19;20523;-71
2023/07/29 08:26:34;;;;;;;4.28;1.60;;;;;;;22.21;64.63;100743.72;6079578;19;20502;-71
2023/07/29 08:28:43;;;;;;;4.60;1.95;;;;;;;21.60;66.14;100747.34;6084261;19;20018;-72
2023/07/29 08:30:48;;;;;;;3.20;1.85;;;;;;;21.37;67.48;100752.00;6094027;19;20015;-73
2023/07/29 08:33:05;;;;;;;4.30;2.10;;;;;;;21.28;68.94;100755.50;6081109;19;20031;-73
2023/07/29 08:35:19;;;;;;;;;;;;;;;21.19;69.59;100767.81;6083943;19;20024;-74
2023/07/29 08:37:36;;;;;;;6.57;2.20;;;;;;;20.89;70.84;100763.31;6084338;19;20018;-73
2023/07/29 08:39:44;;;;;;;6.25;2.40;;;;;;;21.07;71.02;100763.56;6084572;19;20390;-73
2023/07/29 08:41:56;;;;;;;5.45;2.30;;;;;;;20.99;72.50;100769.56;6080640;19;20011;-73
2023/07/29 08:44:06;;;;;;;6.05;2.78;;;;;;;21.03;73.44;100754.94;6097749;19;20039;-73
2023/07/29 08:46:19;;;;;;;5.72;2.60;;;;;;;20.92;74.01;100765.69;6089978;19;20006;-72
2023/07/29 08:48:34;;;;;;;9.30;2.70;;;;;;;20.87;73.92;100759.91;6083587;19;20097;-72
2023/07/29 08:50:44;;;;;;;5.50;2.70;;;;;;;20.66;74.66;100764.41;6079169;19;20011;-70
2023/07/29 08:52:51;;;;;;;5.85;2.40;;;;;;;20.65;76.22;100768.91;6074697;19;20090;-72
2023/07/29 08:54:58;;;;;;;6.75;2.63;;;;;;;20.80;75.08;100764.06;6067676;19;20032;-71
2023/07/29 08:57:06;;;;;;;5.90;2.83;;;;;;;20.76;74.99;100765.31;6048798;19;20518;-73
2023/07/29 08:59:14;;;;;;;5.55;2.53;;;;;;;20.68;76.14;100770.47;6066981;19;20020;-72
2023/07/29 09:01:23;;;;;;;8.60;2.78;;;;;;;20.60;76.50;100769.28;6067688;19;20205;-72
2023/07/29 09:03:31;;;;;;;4.72;2.90;;;;;;;20.69;77.82;100772.16;6040710;19;20018;-71
2023/07/29 09:05:39;;;;;;;6.03;3.00;;;;;;;20.49;78.45;100765.78;6077893;19;20124;-73
2023/07/29 09:07:49;;;;;;;6.10;3.30;;;;;;;20.42;79.35;100770.78;6073938;19;20393;-73
2023/07/29 09:09:58;;;;;;;6.75;3.28;;;;;;;20.21;80.13;100768.06;6073363;19;20018;-72
2023/07/29 09:12:06;;;;;;;5.63;3.33;;;;;;;20.31;78.80;100771.66;6077547;19;20519;-72
2023/07/29 09:14:16;;;;;;;6.22;3.40;;;;;;;20.52;78.53;100773.53;6076765;19;20019;-74
2023/07/29 09:16:24;;;;;;;5.68;3.58;;;;;;;20.46;78.01;100774.91;6080673;19;20240;-73
2023/07/29 09:18:33;;;;;;;7.75;4.35;;;;;;;20.70;77.20;100763.19;6079603;19;20335;-74
2023/07/29 09:20:42;;;;;;;5.53;3.20;;;;;;;20.79;76.46;100767.72;6075679;19;20467;-71
2023/07/29 09:22:48;;;;;;;5.80;3.20;;;;;;;20.52;76.55;100773.53;6082403;19;19998;-69
2023/07/29 09:25:05;;;;;;;5.10;3.33;;;;;;;20.81;75.81;100768.44;6079317;19;20014;-71
2023/07/29 09:27:32;;;;;;;5.30;3.17;;;;;;;20.92;75.47;100764.88;6034418;19;20419;-72
2023/07/29 09:29:42;;;;;;;6.80;3.15;;;;;;;20.96;75.59;100777.84;6053373;19;20018;-71
2023/07/29 09:31:50;;;;;;;10.35;3.28;;;;;;;20.81;74.50;100771.97;6083433;19;20471;-71
2023/07/29 09:36:35;;;;;;;3.63;2.83;;;;;;;21.02;74.60;100776.47;6085728;19;20289;-71
2023/07/29 09:38:40;;;;;;;7.07;2.80;;;;;;;20.82;75.02;100765.63;6082477;19;20015;-70
2023/07/29 09:40:52;;;;;;;7.25;3.45;;;;;;;20.69;75.71;100769.47;6084164;19;20374;-71
2023/07/29 09:43:13;;;;;;;9.20;4.43;;;;;;;20.75;77.36;100771.66;6072437;19;20019;-69
2023/07/29 09:45:22;;;;;;;5.03;3.15;;;;;;;20.63;77.61;100770.84;6084125;19;20324;-73
2023/07/29 09:47:33;;;;;;;5.97;2.83;;;;;;;20.69;79.08;100780.16;6074186;19;20018;-71
2023/07/29 09:49:43;;;;;;;6.70;3.10;;;;;;;20.88;79.75;100772.31;6076900;19;20019;-72
2023/07/29 09:51:48;;;;;;;4.85;2.47;;;;;;;20.91;78.09;100760.50;6073846;19;20031;-71
2023/07/29 09:53:54;;;;;;;5.20;2.42;;;;;;;20.99;78.09;100760.69;6070625;19;20014;-70
2023/07/29 09:56:01;;;;;;;5.55;2.42;;;;;;;21.30;76.94;100758.03;6074644;19;20492;-71
2023/07/29 09:58:08;;;;;;;5.28;2.30;;;;;;;21.27;75.54;100764.47;6074886;19;20355;-71
2023/07/29 10:00:31;;;;;;;6.90;2.47;;;;;;;21.53;76.61;100756.06;6053716;19;20011;-70